createdAt,value
2022-10-18T00:02:06.480Z,34.72
2022-10-18T00:04:33.656Z,34.53
2022-10-18T00:07:00.039Z,39.58
2022-10-18T00:09:26.748Z,37.58
2022-10-18T00:11:53.719Z,33.42
2022-10-18T00:14:20.174Z,39.63
2022-10-18T00:16:46.488Z,40.70
2022-10-18T00:19:12.860Z,33.53
2022-10-18T00:21:39.328Z,37.42
2022-10-18T00:24:06.080Z,39.65
2022-10-18T00:26:32.412Z,38.80
2022-10-18T00:29:05.028Z,41.80
2022-10-18T00:31:34.450Z,35.80
2022-10-18T00:34:06.278Z,39.15
2022-10-18T00:36:34.020Z,34.83
2022-10-18T00:39:01.845Z,41.35
2022-10-18T00:41:31.775Z,41.20
2022-10-18T00:44:07.295Z,40.92
2022-10-18T00:46:43.389Z,35.55
2022-10-18T00:49:16.996Z,37.45
2022-10-18T00:51:51.996Z,37.70
2022-10-18T00:54:20.621Z,35.50
2022-10-18T00:56:46.988Z,38.17
2022-10-18T00:59:16.306Z,45.17
2022-10-18T01:01:43.120Z,52.63
2022-10-18T01:04:10.148Z,41.38
2022-10-18T01:09:33.903Z,49.10
2022-10-18T01:12:09.358Z,58.30
2022-10-18T01:14:49.747Z,54.15
2022-10-18T01:17:18.704Z,49.97
2022-10-18T01:20:07.128Z,49.10
2022-10-18T01:22:48.658Z,52.58
2022-10-18T01:25:57.061Z,48.17
2022-10-18T01:28:50.117Z,56.13
2022-10-18T01:31:31.811Z,56.15
2022-10-18T01:36:42.590Z,43.72
2022-10-18T01:39:14.319Z,44.83
2022-10-18T01:41:43.219Z,49.38
2022-10-18T01:44:15.014Z,51.08
2022-10-18T01:46:42.799Z,43.95
2022-10-18T01:49:09.109Z,47.47
2022-10-18T01:51:35.547Z,43.80
2022-10-18T01:54:02.398Z,46.95
2022-10-18T01:56:41.065Z,45.90
2022-10-18T01:59:45.166Z,43.35
2022-10-18T02:02:33.266Z,45.10
2022-10-18T02:05:24.657Z,41.53
2022-10-18T02:08:22.733Z,40.58
2022-10-18T02:11:10.708Z,39.00
2022-10-18T02:13:42.573Z,42.53
2022-10-18T02:16:13.777Z,40.42
2022-10-18T02:18:44.283Z,42.42
2022-10-18T02:21:13.397Z,50.45
2022-10-18T02:23:39.729Z,41.38
2022-10-18T02:26:06.642Z,41.33
2022-10-18T02:28:33.031Z,48.92
2022-10-18T02:31:20.746Z,40.08
2022-10-18T02:33:47.020Z,38.47
2022-10-18T02:36:38.898Z,41.05
2022-10-18T02:39:11.559Z,39.80
2022-10-18T02:41:38.060Z,41.70
2022-10-18T02:44:04.551Z,43.15
2022-10-18T02:46:30.923Z,46.75
2022-10-18T02:48:57.247Z,47.40
2022-10-18T02:51:23.690Z,46.33
2022-10-18T02:53:50.002Z,44.08
2022-10-18T02:56:16.367Z,49.00
2022-10-18T02:58:42.707Z,39.47
2022-10-18T03:01:09.117Z,41.08
2022-10-18T03:03:35.466Z,40.78
2022-10-18T03:06:01.773Z,53.50
2022-10-18T03:08:28.165Z,53.72
2022-10-18T03:10:54.494Z,46.60
2022-10-18T03:13:21.047Z,46.38
2022-10-18T03:15:48.117Z,56.70
2022-10-18T03:18:15.028Z,55.92
2022-10-18T03:20:41.392Z,47.97
2022-10-18T03:23:07.715Z,53.42
2022-10-18T03:25:34.337Z,58.85
2022-10-18T03:28:00.878Z,47.20
2022-10-18T03:30:27.337Z,51.53
2022-10-18T03:32:53.634Z,53.88
2022-10-18T03:35:20.441Z,47.15
2022-10-18T03:37:46.838Z,49.15
2022-10-18T03:40:13.242Z,54.88
2022-10-18T03:42:39.569Z,50.35
2022-10-18T03:45:06.401Z,54.50
2022-10-18T03:47:32.750Z,53.08
2022-10-18T03:49:59.073Z,56.35
2022-10-18T03:52:25.449Z,66.53
2022-10-18T03:54:51.754Z,69.40
2022-10-18T03:57:18.086Z,57.60
2022-10-18T03:59:44.429Z,54.65
2022-10-18T04:02:10.802Z,61.45
2022-10-18T04:04:37.111Z,59.45
2022-10-18T04:07:03.431Z,54.30
2022-10-18T04:09:29.786Z,50.22
2022-10-18T04:11:56.109Z,54.92
2022-10-18T04:14:22.412Z,59.05
2022-10-18T04:16:48.753Z,57.08
2022-10-18T04:19:15.150Z,57.75
2022-10-18T04:21:41.486Z,47.22
2022-10-18T04:24:07.818Z,62.15
2022-10-18T04:26:34.155Z,56.15
2022-10-18T04:29:00.562Z,59.08
2022-10-18T04:31:27.058Z,53.92
2022-10-18T04:33:53.548Z,53.75
2022-10-18T04:36:19.884Z,57.35
2022-10-18T04:38:46.243Z,54.63
2022-10-18T04:41:12.568Z,59.30
2022-10-18T04:43:38.971Z,56.47
2022-10-18T04:46:05.411Z,57.60
2022-10-18T04:48:31.750Z,51.28
2022-10-18T04:50:58.090Z,56.90
2022-10-18T04:53:24.549Z,52.42
2022-10-18T04:55:51.469Z,56.03
2022-10-18T04:58:18.431Z,58.15
2022-10-18T05:00:45.227Z,66.57
2022-10-18T05:03:13.760Z,63.65
2022-10-18T05:06:00.300Z,52.50
2022-10-18T05:08:26.828Z,55.88
2022-10-18T05:10:53.226Z,56.67
2022-10-18T05:13:19.579Z,54.35
2022-10-18T05:15:46.615Z,58.50
2022-10-18T05:18:13.082Z,56.60
2022-10-18T05:20:39.438Z,53.70
2022-10-18T05:23:05.776Z,55.25
2022-10-18T05:25:32.155Z,55.35
2022-10-18T05:28:00.947Z,60.25
2022-10-18T05:30:29.614Z,60.05
2022-10-18T05:32:55.936Z,67.93
2022-10-18T05:35:22.299Z,60.35
2022-10-18T05:37:48.652Z,64.10
2022-10-18T05:40:15.019Z,56.53
2022-10-18T05:42:41.353Z,61.05
2022-10-18T05:45:08.393Z,63.17
2022-10-18T05:50:07.244Z,58.60
2022-10-18T05:52:33.988Z,58.00
2022-10-18T05:55:00.646Z,62.22
2022-10-18T05:57:26.990Z,59.08
2022-10-18T05:59:53.315Z,70.93
2022-10-18T06:02:19.835Z,63.08
2022-10-18T06:04:46.199Z,54.67
2022-10-18T06:07:12.619Z,58.08
2022-10-18T06:09:38.967Z,51.55
2022-10-18T06:12:05.555Z,58.55
2022-10-18T06:14:31.932Z,59.00
2022-10-18T06:16:58.256Z,53.45
2022-10-18T06:19:24.563Z,56.30
2022-10-18T06:21:50.887Z,54.90
2022-10-18T06:24:17.226Z,54.72
2022-10-18T06:26:43.687Z,58.53
2022-10-18T06:29:10.283Z,62.65
2022-10-18T06:31:36.634Z,66.25
2022-10-18T06:34:02.959Z,63.42
2022-10-18T06:36:29.274Z,57.88
2022-10-18T06:38:55.610Z,59.38
2022-10-18T06:41:22.395Z,62.85
2022-10-18T06:43:49.660Z,62.03
2022-10-18T06:46:16.443Z,63.55
2022-10-18T06:48:42.753Z,73.22
2022-10-18T06:51:09.913Z,64.50
2022-10-18T06:53:44.183Z,72.28
2022-10-18T06:56:19.743Z,70.82
2022-10-18T06:58:46.144Z,72.30
2022-10-18T07:01:15.116Z,72.10
2022-10-18T07:03:41.774Z,78.63
2022-10-18T07:06:10.755Z,68.57
2022-10-18T07:08:38.483Z,63.42
2022-10-18T07:11:06.417Z,70.13
2022-10-18T07:13:33.605Z,61.00
2022-10-18T07:16:05.267Z,59.33
2022-10-18T07:18:36.832Z,58.63
2022-10-18T07:21:05.355Z,71.35
2022-10-18T07:23:42.266Z,61.03
2022-10-18T07:26:34.181Z,73.05
2022-10-18T07:29:10.011Z,64.43
2022-10-18T07:31:37.315Z,58.60
2022-10-18T07:34:05.295Z,65.90
2022-10-18T07:36:31.920Z,57.95
2022-10-18T07:38:58.426Z,57.53
2022-10-18T07:41:25.060Z,55.10
2022-10-18T07:43:52.849Z,54.85
2022-10-18T07:46:20.945Z,59.92
2022-10-18T07:48:47.703Z,63.80
2022-10-18T07:51:14.577Z,68.70
2022-10-18T07:53:41.066Z,75.90
2022-10-18T07:56:13.451Z,58.50
2022-10-18T07:58:39.786Z,57.13
2022-10-18T08:01:07.847Z,59.45
2022-10-18T08:03:35.480Z,74.40
2022-10-18T08:06:03.132Z,72.78
2022-10-18T08:08:30.101Z,68.43
2022-10-18T08:11:02.123Z,60.38
2022-10-18T08:13:29.182Z,69.75
2022-10-18T08:16:06.791Z,61.95
2022-10-18T08:18:33.746Z,69.22
2022-10-18T08:21:01.422Z,71.70
2022-10-18T08:23:27.760Z,69.53
2022-10-18T08:25:54.363Z,61.72
2022-10-18T08:28:21.018Z,55.45
2022-10-18T08:30:47.349Z,51.63
2022-10-18T08:33:13.672Z,57.47
2022-10-18T08:35:40.024Z,53.10
2022-10-18T08:38:06.335Z,50.35
2022-10-18T08:40:33.901Z,48.58
2022-10-18T08:43:10.449Z,44.42
2022-10-18T08:45:42.657Z,55.10
2022-10-18T08:48:32.766Z,48.78
2022-10-18T08:51:00.136Z,46.13
2022-10-18T08:53:34.051Z,53.72
2022-10-18T08:56:11.761Z,45.60
2022-10-18T08:58:39.084Z,39.20
2022-10-18T09:01:46.439Z,38.67
2022-10-18T09:04:34.939Z,42.88
2022-10-18T09:07:03.964Z,47.78
2022-10-18T09:10:01.400Z,39.75
2022-10-18T09:12:49.114Z,34.47
2022-10-18T09:15:36.858Z,40.35
2022-10-18T09:18:13.245Z,43.08
2022-10-18T09:21:05.207Z,44.78
2022-10-18T09:23:39.697Z,39.25
2022-10-18T09:26:13.701Z,38.83
2022-10-18T09:29:05.695Z,39.75
2022-10-18T09:31:40.909Z,46.80
2022-10-18T09:34:29.967Z,47.72
2022-10-18T09:36:57.135Z,40.05
2022-10-18T09:39:31.111Z,44.45
2022-10-18T09:42:03.795Z,53.47
2022-10-18T09:44:48.765Z,48.83
2022-10-18T09:50:06.082Z,49.10
2022-10-18T09:52:44.403Z,54.22
2022-10-18T09:55:22.222Z,51.33
2022-10-18T09:57:54.510Z,55.42
2022-10-18T10:00:27.995Z,55.83
2022-10-18T10:02:54.796Z,55.33
2022-10-18T10:05:21.110Z,61.03
2022-10-18T10:07:49.446Z,54.30
2022-10-18T10:10:23.743Z,56.75
2022-10-18T10:13:02.726Z,50.08
2022-10-18T10:15:33.057Z,59.83
2022-10-18T10:18:24.842Z,51.30
2022-10-18T10:20:59.818Z,51.30
2022-10-18T10:23:30.307Z,54.22
2022-10-18T10:26:02.583Z,47.78
2022-10-18T10:28:32.768Z,56.88
2022-10-18T10:31:24.194Z,52.75
2022-10-18T10:34:14.114Z,55.00
2022-10-18T10:36:54.764Z,59.58
2022-10-18T10:39:23.704Z,53.47
2022-10-18T10:41:56.378Z,45.38
2022-10-18T10:44:25.720Z,36.70
2022-10-18T10:46:53.132Z,36.20
2022-10-18T10:52:36.863Z,48.55
2022-10-18T10:55:11.296Z,39.22
2022-10-18T10:57:51.487Z,39.53
2022-10-18T11:00:44.507Z,32.63
2022-10-18T11:03:28.060Z,36.67
2022-10-18T11:05:56.093Z,32.60
2022-10-18T11:08:26.467Z,30.98
2022-10-18T11:11:22.890Z,34.35
2022-10-18T11:14:07.296Z,24.98
2022-10-18T11:16:55.633Z,35.25
2022-10-18T11:19:37.111Z,28.85
2022-10-18T11:22:06.392Z,23.27
2022-10-18T11:24:35.233Z,25.15
2022-10-18T11:27:26.890Z,31.60
2022-10-18T11:29:59.280Z,27.02
2022-10-18T11:32:38.459Z,30.23
2022-10-18T11:35:38.692Z,21.10
2022-10-18T11:38:32.649Z,18.40
2022-10-18T11:41:10.382Z,18.25
2022-10-18T11:44:01.237Z,23.92
2022-10-18T11:46:43.423Z,22.08
2022-10-18T11:49:34.155Z,20.85
2022-10-18T11:52:24.700Z,15.65
2022-10-18T11:55:20.223Z,21.17
2022-10-18T12:00:32.843Z,21.38
2022-10-18T12:03:13.934Z,17.85
2022-10-18T12:05:42.773Z,20.33
2022-10-18T12:08:14.706Z,19.08
2022-10-18T12:11:05.807Z,20.33
2022-10-18T12:13:32.616Z,22.08
2022-10-18T12:16:02.079Z,24.05
2022-10-18T12:18:31.634Z,20.10
2022-10-18T12:20:59.914Z,18.75
2022-10-18T12:23:29.303Z,20.73
2022-10-18T12:26:01.799Z,18.17
2022-10-18T12:28:51.251Z,20.50
2022-10-18T12:31:24.097Z,19.08
2022-10-18T12:33:56.237Z,17.67
2022-10-18T12:36:22.506Z,19.30
2022-10-18T12:38:57.151Z,16.30
2022-10-18T12:41:27.787Z,14.00
2022-10-18T12:44:06.743Z,15.77
2022-10-18T12:46:50.349Z,16.35
2022-10-18T12:49:40.206Z,14.40
2022-10-18T12:52:26.700Z,16.30
2022-10-18T12:55:16.707Z,14.93
2022-10-18T12:57:52.781Z,11.95
2022-10-18T13:00:31.271Z,8.50
2022-10-18T13:03:26.833Z,10.13
2022-10-18T13:08:28.982Z,8.35
2022-10-18T13:11:01.474Z,6.60
2022-10-18T13:13:43.131Z,7.65
2022-10-18T13:16:23.992Z,6.20
2022-10-18T13:19:14.152Z,11.60
2022-10-18T13:21:53.578Z,7.85
2022-10-18T13:24:35.641Z,7.35
2022-10-18T13:27:34.894Z,12.43
2022-10-18T13:30:09.924Z,8.50
2022-10-18T13:32:59.055Z,11.82
2022-10-18T13:35:52.447Z,11.93
2022-10-18T13:38:54.060Z,10.98
2022-10-18T13:43:53.580Z,9.70
2022-10-18T13:46:21.114Z,10.07
2022-10-18T13:48:49.774Z,11.45
2022-10-18T13:51:32.338Z,10.27
2022-10-18T13:54:17.140Z,11.02
2022-10-18T13:56:54.448Z,11.32
2022-10-18T14:02:50.992Z,10.05
2022-10-18T14:05:36.575Z,8.75
2022-10-18T14:08:11.103Z,7.63
2022-10-18T14:11:02.399Z,13.77
2022-10-18T14:13:43.758Z,10.60
2022-10-18T14:16:47.638Z,9.68
2022-10-18T14:19:13.898Z,10.73
2022-10-18T14:21:47.654Z,6.88
2022-10-18T14:24:20.308Z,8.48
2022-10-18T14:26:46.930Z,7.20
2022-10-18T14:29:18.822Z,11.82
2022-10-18T14:31:53.949Z,11.88
2022-10-18T14:34:21.031Z,15.18
2022-10-18T14:36:49.324Z,9.90
2022-10-18T14:39:21.913Z,8.77
2022-10-18T14:41:54.044Z,7.20
2022-10-18T14:44:26.296Z,6.18
2022-10-18T14:46:59.716Z,6.53
2022-10-18T14:49:26.177Z,9.13
2022-10-18T14:51:55.654Z,5.78
2022-10-18T14:54:32.470Z,7.25
2022-10-18T14:57:00.577Z,9.02
2022-10-18T14:59:29.725Z,7.82
2022-10-18T15:01:55.982Z,11.32
2022-10-18T15:04:27.783Z,7.28
2022-10-18T15:06:55.453Z,6.68
2022-10-18T15:09:24.366Z,5.07
2022-10-18T15:11:51.396Z,6.18
2022-10-18T15:14:20.106Z,7.93
2022-10-18T15:16:48.703Z,11.10
2022-10-18T15:19:14.962Z,7.22
2022-10-18T15:22:33.887Z,9.43
2022-10-18T15:25:10.922Z,4.55
2022-10-18T15:27:39.330Z,9.60
2022-10-18T15:30:08.544Z,12.25
2022-10-18T15:32:35.097Z,7.30
2022-10-18T15:35:15.738Z,4.63
2022-10-18T15:37:44.837Z,7.82
2022-10-18T15:40:23.063Z,7.25
2022-10-18T15:42:50.746Z,8.43
2022-10-18T15:45:26.279Z,5.03
2022-10-18T15:48:07.824Z,12.32
2022-10-18T15:50:41.777Z,8.63
2022-10-18T15:53:20.412Z,4.93
2022-10-18T15:56:05.475Z,3.22
2022-10-18T15:58:45.503Z,7.93
2022-10-18T16:01:14.727Z,9.40
2022-10-18T16:03:41.459Z,9.90
2022-10-18T16:06:12.355Z,10.35
2022-10-18T16:08:43.787Z,8.27
2022-10-18T16:11:19.141Z,7.68
2022-10-18T16:13:45.913Z,9.88
2022-10-18T16:16:16.728Z,8.93
2022-10-18T16:18:43.054Z,11.93
2022-10-18T16:21:24.987Z,11.18
2022-10-18T16:23:51.555Z,7.15
2022-10-18T16:26:19.579Z,7.30
2022-10-18T16:28:46.650Z,7.25
2022-10-18T16:31:17.431Z,7.82
2022-10-18T16:33:44.616Z,8.90
2022-10-18T16:36:19.137Z,14.70
2022-10-18T16:38:46.199Z,8.95
2022-10-18T16:41:12.635Z,8.52
2022-10-18T16:43:39.551Z,6.95
2022-10-18T16:46:07.263Z,8.88
2022-10-18T16:48:34.067Z,9.00
2022-10-18T16:51:01.240Z,8.50
2022-10-18T16:53:27.745Z,7.25
2022-10-18T16:55:59.709Z,7.68
2022-10-18T16:58:28.023Z,7.43
2022-10-18T17:00:54.922Z,8.82
2022-10-18T17:03:21.526Z,9.38
2022-10-18T17:05:47.878Z,9.82
2022-10-18T17:08:23.238Z,9.27
2022-10-18T17:10:51.435Z,10.68
2022-10-18T17:13:17.739Z,10.48
2022-10-18T17:15:44.522Z,10.80
2022-10-18T17:18:16.780Z,11.10
2022-10-18T17:20:43.460Z,10.93
2022-10-18T17:23:09.994Z,8.00
2022-10-18T17:25:46.230Z,8.10
2022-10-18T17:28:23.983Z,9.77
2022-10-18T17:30:50.301Z,14.00
2022-10-18T17:33:16.595Z,8.70
2022-10-18T17:35:44.023Z,12.07
2022-10-18T17:38:10.935Z,13.75
2022-10-18T17:40:41.034Z,11.65
2022-10-18T17:43:07.695Z,9.32
2022-10-18T17:45:34.045Z,5.72
2022-10-18T17:48:00.376Z,9.20
2022-10-18T17:50:29.501Z,11.57
2022-10-18T17:52:55.876Z,12.18
2022-10-18T17:55:22.188Z,8.88
2022-10-18T17:57:48.487Z,7.15
2022-10-18T18:00:14.873Z,9.48
2022-10-18T18:02:42.080Z,10.60
2022-10-18T18:05:09.052Z,10.30
2022-10-18T18:07:35.593Z,9.05
2022-10-18T18:10:02.780Z,11.60
2022-10-18T18:12:29.077Z,13.35
2022-10-18T18:14:55.593Z,10.50
2022-10-18T18:17:33.634Z,8.75
2022-10-18T18:20:00.960Z,5.82
2022-10-18T18:22:27.266Z,8.98
2022-10-18T18:24:53.562Z,8.85
2022-10-18T18:27:19.891Z,5.57
2022-10-18T18:29:46.205Z,6.18
2022-10-18T18:32:12.531Z,10.45
2022-10-18T18:34:38.845Z,8.25
2022-10-18T18:37:05.162Z,9.75
2022-10-18T18:39:31.464Z,9.95
2022-10-18T18:41:57.797Z,11.20
2022-10-18T18:44:24.115Z,7.47
2022-10-18T18:46:50.433Z,7.88
2022-10-18T18:49:16.803Z,7.95
2022-10-18T18:51:43.194Z,9.68
2022-10-18T18:54:11.539Z,6.93
2022-10-18T18:56:38.014Z,7.43
2022-10-18T18:59:05.152Z,12.63
2022-10-18T19:01:34.632Z,11.13
2022-10-18T19:04:01.457Z,12.48
2022-10-18T19:06:30.931Z,10.82
2022-10-18T19:08:58.547Z,7.07
2022-10-18T19:11:24.860Z,16.70
2022-10-18T19:13:51.256Z,15.65
2022-10-18T19:16:21.812Z,13.75
2022-10-18T19:19:00.163Z,16.15
2022-10-18T19:21:30.152Z,14.70
2022-10-18T19:23:57.491Z,16.02
2022-10-18T19:26:31.115Z,10.57
2022-10-18T19:29:09.659Z,17.35
2022-10-18T19:31:36.387Z,13.18
2022-10-18T19:34:07.879Z,14.57
2022-10-18T19:36:35.155Z,12.05
2022-10-18T19:39:02.304Z,12.82
2022-10-18T19:41:36.872Z,11.10
2022-10-18T19:46:29.796Z,12.70
2022-10-18T19:48:56.130Z,9.63
2022-10-18T19:51:26.844Z,11.32
2022-10-18T19:53:55.112Z,12.27
2022-10-18T19:56:23.099Z,13.35
2022-10-18T19:58:49.900Z,13.77
2022-10-18T20:01:17.472Z,14.70
2022-10-18T20:03:44.236Z,12.27
2022-10-18T20:06:10.937Z,13.63
2022-10-18T20:08:38.052Z,13.52
2022-10-18T20:11:07.765Z,15.80
2022-10-18T20:13:35.034Z,14.02
2022-10-18T20:16:04.892Z,15.40
2022-10-18T20:18:31.458Z,12.80
2022-10-18T20:20:57.773Z,12.07
2022-10-18T20:23:24.139Z,10.88
2022-10-18T20:26:01.382Z,13.77
2022-10-18T20:28:28.034Z,12.15
2022-10-18T20:31:02.736Z,10.75
2022-10-18T20:33:29.146Z,11.60
2022-10-18T20:35:55.640Z,10.68
2022-10-18T20:38:22.262Z,10.90
2022-10-18T20:40:48.572Z,12.18
2022-10-18T20:43:14.935Z,10.48
2022-10-18T20:45:41.235Z,12.45
2022-10-18T20:48:07.562Z,11.82
2022-10-18T20:50:33.887Z,20.05
2022-10-18T20:53:00.239Z,9.18
2022-10-18T20:55:28.801Z,12.13
2022-10-18T20:57:55.135Z,8.95
2022-10-18T21:00:21.440Z,13.15
2022-10-18T21:02:47.756Z,9.43
2022-10-18T21:05:14.126Z,10.35
2022-10-18T21:07:40.493Z,17.13
2022-10-18T21:10:07.161Z,11.68
2022-10-18T21:12:35.059Z,13.15
2022-10-18T21:15:01.814Z,12.52
2022-10-18T21:17:28.116Z,15.10
2022-10-18T21:19:54.431Z,14.05
2022-10-18T21:22:20.767Z,13.60
2022-10-18T21:24:47.097Z,12.80
2022-10-18T21:27:13.400Z,16.50
2022-10-18T21:29:39.720Z,13.73
2022-10-18T21:32:06.071Z,12.98
2022-10-18T21:34:32.557Z,11.38
2022-10-18T21:36:58.873Z,15.43
2022-10-18T21:39:25.372Z,12.63
2022-10-18T21:41:51.860Z,15.63
2022-10-18T21:44:18.474Z,16.27
2022-10-18T21:46:45.308Z,11.02
2022-10-18T21:49:12.387Z,13.02
2022-10-18T21:51:39.353Z,13.00
2022-10-18T21:54:08.356Z,11.38
2022-10-18T21:56:35.774Z,15.45
2022-10-18T21:59:03.137Z,12.95
2022-10-18T22:01:34.534Z,12.13
2022-10-18T22:04:03.346Z,15.57
2022-10-18T22:06:31.779Z,12.52
2022-10-18T22:09:01.282Z,11.95
2022-10-18T22:11:31.250Z,16.65
2022-10-18T22:13:58.039Z,17.42
2022-10-18T22:16:25.446Z,13.48
2022-10-18T22:18:56.270Z,18.20
2022-10-18T22:21:22.626Z,14.05
2022-10-18T22:23:51.320Z,15.98
2022-10-18T22:26:24.001Z,14.18
2022-10-18T22:28:58.649Z,14.38
2022-10-18T22:31:28.187Z,11.90
2022-10-18T22:33:59.607Z,10.63
2022-10-18T22:36:27.457Z,20.10
2022-10-18T22:38:54.167Z,20.83
2022-10-18T22:41:20.576Z,13.65
2022-10-18T22:43:47.537Z,16.38
2022-10-18T22:46:14.998Z,15.85
2022-10-18T22:48:41.839Z,16.52
2022-10-18T22:51:08.570Z,17.40
2022-10-18T22:53:35.772Z,11.38
2022-10-18T22:56:02.546Z,16.75
2022-10-18T22:58:29.206Z,15.52
2022-10-18T23:01:07.496Z,15.02
2022-10-18T23:03:35.072Z,13.38
2022-10-18T23:06:02.238Z,18.08
2022-10-18T23:08:29.776Z,16.85
2022-10-18T23:10:59.072Z,15.02
2022-10-18T23:13:26.860Z,14.18
2022-10-18T23:15:53.493Z,16.50
2022-10-18T23:18:19.877Z,14.43
2022-10-18T23:20:46.172Z,14.75
2022-10-18T23:23:13.109Z,14.32
2022-10-18T23:25:39.491Z,14.57
2022-10-18T23:28:06.457Z,13.10
2022-10-18T23:30:32.934Z,12.25
2022-10-18T23:32:59.257Z,13.05
2022-10-18T23:35:25.682Z,13.00
2022-10-18T23:37:52.168Z,14.07
2022-10-18T23:40:18.485Z,13.45
2022-10-18T23:42:44.795Z,16.30
2022-10-18T23:45:11.187Z,10.90
2022-10-18T23:47:37.539Z,17.58
2022-10-18T23:50:04.437Z,12.98
2022-10-18T23:52:30.761Z,13.80
2022-10-18T23:54:57.088Z,14.60
2022-10-18T23:57:23.394Z,15.18
2022-10-18T23:59:49.731Z,12.65
